createdAt,value
2022-10-21T00:04:11.242Z,13.50
2022-10-21T00:06:37.815Z,14.37
2022-10-21T00:09:04.481Z,15.00
2022-10-21T00:11:31.089Z,14.33
2022-10-21T00:13:57.657Z,15.57
2022-10-21T00:16:24.234Z,14.27
2022-10-21T00:18:50.774Z,13.90
2022-10-21T00:21:19.810Z,14.07
2022-10-21T00:23:47.521Z,13.13
2022-10-21T00:26:15.158Z,11.80
2022-10-21T00:28:42.421Z,11.70
2022-10-21T00:31:11.247Z,12.87
2022-10-21T00:33:38.049Z,12.27
2022-10-21T00:36:07.126Z,11.43
2022-10-21T00:38:35.105Z,10.70
2022-10-21T00:41:02.594Z,10.33
2022-10-21T00:43:29.362Z,10.10
2022-10-21T00:46:02.581Z,8.90
2022-10-21T00:48:35.823Z,8.47
2022-10-21T00:51:14.266Z,10.17
2022-10-21T00:53:44.414Z,9.30
2022-10-21T00:56:16.823Z,10.83
2022-10-21T00:58:46.938Z,9.87
2022-10-21T01:01:17.891Z,9.33
2022-10-21T01:03:47.259Z,8.97
2022-10-21T01:06:15.475Z,10.20
2022-10-21T01:08:42.229Z,8.97
2022-10-21T01:11:14.330Z,8.20
2022-10-21T01:14:24.750Z,8.50
2022-10-21T01:17:26.433Z,7.30
2022-10-21T01:20:22.485Z,7.43
2022-10-21T01:23:17.462Z,8.00
2022-10-21T01:25:55.809Z,7.77
2022-10-21T01:28:49.647Z,6.90
2022-10-21T01:31:25.515Z,6.93
2022-10-21T01:34:13.682Z,6.77
2022-10-21T01:36:49.162Z,7.03
2022-10-21T01:39:27.365Z,7.10
2022-10-21T01:42:25.236Z,7.63
2022-10-21T01:45:09.979Z,6.93
2022-10-21T01:47:39.713Z,6.87
2022-10-21T01:50:16.962Z,7.20
2022-10-21T01:52:47.928Z,8.37
2022-10-21T01:55:19.330Z,8.90
2022-10-21T01:57:51.564Z,8.33
2022-10-21T02:00:18.539Z,7.40
2022-10-21T02:02:48.903Z,7.47
2022-10-21T02:05:25.662Z,7.80
2022-10-21T02:07:52.283Z,7.30
2022-10-21T02:10:19.916Z,6.90
2022-10-21T02:12:49.103Z,6.50
2022-10-21T02:15:18.089Z,6.13
2022-10-21T02:18:01.748Z,5.90
2022-10-21T02:20:31.865Z,5.87
2022-10-21T02:22:58.849Z,5.20
2022-10-21T02:25:32.728Z,5.13
2022-10-21T02:27:59.449Z,4.53
2022-10-21T02:30:30.276Z,4.37
2022-10-21T02:33:04.160Z,5.00
2022-10-21T02:35:51.871Z,6.07
2022-10-21T02:38:40.260Z,6.47
2022-10-21T02:41:11.515Z,6.90
2022-10-21T02:43:48.882Z,7.33
2022-10-21T02:46:15.955Z,7.67
2022-10-21T02:48:47.916Z,7.07
2022-10-21T02:51:15.782Z,7.37
2022-10-21T02:53:42.982Z,7.63
2022-10-21T02:56:09.566Z,7.47
2022-10-21T02:58:36.459Z,6.97
2022-10-21T03:01:03.277Z,6.93
2022-10-21T03:03:30.039Z,6.40
2022-10-21T03:05:57.396Z,7.30
2022-10-21T03:08:23.998Z,7.20
2022-10-21T03:10:53.132Z,7.63
2022-10-21T03:13:20.993Z,8.03
2022-10-21T03:15:49.204Z,6.80
2022-10-21T03:18:16.366Z,6.73
2022-10-21T03:20:42.977Z,6.43
2022-10-21T03:23:09.551Z,7.03
2022-10-21T03:25:36.198Z,7.57
2022-10-21T03:28:03.139Z,6.67
2022-10-21T03:30:29.737Z,6.23
2022-10-21T03:32:56.303Z,6.87
2022-10-21T03:35:22.858Z,6.90
2022-10-21T03:37:49.462Z,6.90
2022-10-21T03:40:16.073Z,6.93
2022-10-21T03:42:42.624Z,7.00
2022-10-21T03:45:09.729Z,7.03
2022-10-21T03:47:36.397Z,7.03
2022-10-21T03:50:05.419Z,6.73
2022-10-21T03:52:34.135Z,6.50
2022-10-21T03:55:00.931Z,5.90
2022-10-21T03:57:27.488Z,7.03
2022-10-21T03:59:54.018Z,6.70
2022-10-21T04:02:20.559Z,7.40
2022-10-21T04:04:47.138Z,7.73
2022-10-21T04:07:13.733Z,6.23
2022-10-21T04:09:40.278Z,6.63
2022-10-21T04:12:06.835Z,7.33
2022-10-21T04:14:33.658Z,6.60
2022-10-21T04:17:06.758Z,7.03
2022-10-21T04:19:33.867Z,5.73
2022-10-21T04:22:00.413Z,6.20
2022-10-21T04:24:26.941Z,6.03
2022-10-21T04:26:53.519Z,6.10
2022-10-21T04:29:20.117Z,5.40
2022-10-21T04:31:46.710Z,5.77
2022-10-21T04:34:13.418Z,5.40
2022-10-21T04:36:39.962Z,5.60
2022-10-21T04:39:06.861Z,6.00
2022-10-21T04:41:33.647Z,5.60
2022-10-21T04:44:02.441Z,4.90
2022-10-21T04:46:28.993Z,4.97
2022-10-21T04:48:55.536Z,5.00
2022-10-21T04:51:22.146Z,4.60
2022-10-21T04:53:48.775Z,5.03
2022-10-21T04:56:15.316Z,4.43
2022-10-21T04:58:41.881Z,4.77
2022-10-21T05:01:08.780Z,4.50
2022-10-21T05:03:35.397Z,4.33
2022-10-21T05:06:02.113Z,4.80
2022-10-21T05:08:28.805Z,4.67
2022-10-21T05:11:02.865Z,4.97
2022-10-21T05:13:30.190Z,5.17
2022-10-21T05:16:01.358Z,4.43
2022-10-21T05:18:28.358Z,4.70
2022-10-21T05:20:55.812Z,5.00
2022-10-21T05:23:22.914Z,5.07
2022-10-21T05:25:51.614Z,4.77
2022-10-21T05:28:18.830Z,5.00
2022-10-21T05:30:45.584Z,4.77
2022-10-21T05:33:12.183Z,5.03
2022-10-21T05:35:38.993Z,4.80
2022-10-21T05:38:05.696Z,5.03
2022-10-21T05:40:33.191Z,4.50
2022-10-21T05:43:00.018Z,4.70
2022-10-21T05:45:27.033Z,5.07
2022-10-21T05:47:53.609Z,5.17
2022-10-21T05:50:20.326Z,6.30
2022-10-21T05:52:46.896Z,5.30
2022-10-21T05:55:13.547Z,4.70
2022-10-21T05:57:40.243Z,5.30
2022-10-21T06:00:07.847Z,6.80
2022-10-21T06:02:34.452Z,5.70
2022-10-21T06:05:01.074Z,6.63
2022-10-21T06:07:27.724Z,5.80
2022-10-21T06:09:54.956Z,6.13
2022-10-21T06:12:22.361Z,6.47
2022-10-21T06:14:48.912Z,6.37
2022-10-21T06:17:15.479Z,6.40
2022-10-21T06:19:44.845Z,6.57
2022-10-21T06:22:14.539Z,6.30
2022-10-21T06:24:41.084Z,7.00
2022-10-21T06:27:08.540Z,6.50
2022-10-21T06:29:35.133Z,6.40
2022-10-21T06:32:01.859Z,5.77
2022-10-21T06:34:28.731Z,6.33
2022-10-21T06:36:55.254Z,6.03
2022-10-21T06:39:21.937Z,5.20
2022-10-21T06:41:48.471Z,5.13
2022-10-21T06:44:15.236Z,5.10
2022-10-21T06:46:41.946Z,5.63
2022-10-21T06:49:08.483Z,5.13
2022-10-21T06:51:35.029Z,4.97
2022-10-21T06:54:01.662Z,4.67
2022-10-21T06:56:28.350Z,5.90
2022-10-21T06:58:57.615Z,5.23
2022-10-21T07:01:40.874Z,5.20
2022-10-21T07:04:08.747Z,4.83
2022-10-21T07:06:35.635Z,4.97
2022-10-21T07:09:03.708Z,5.10
2022-10-21T07:11:30.336Z,5.40
2022-10-21T07:13:56.926Z,5.30
2022-10-21T07:16:28.960Z,5.97
2022-10-21T07:18:56.125Z,5.30
2022-10-21T07:21:26.223Z,5.47
2022-10-21T07:23:56.571Z,5.30
2022-10-21T07:26:27.273Z,4.63
2022-10-21T07:28:58.103Z,4.90
2022-10-21T07:31:24.679Z,5.30
2022-10-21T07:33:52.042Z,5.47
2022-10-21T07:36:24.580Z,5.80
2022-10-21T07:38:52.961Z,5.37
2022-10-21T07:41:41.021Z,4.60
2022-10-21T07:44:08.229Z,5.40
2022-10-21T07:46:35.141Z,5.53
2022-10-21T07:49:01.699Z,5.20
2022-10-21T07:51:30.269Z,5.33
2022-10-21T07:53:59.369Z,4.43
2022-10-21T07:56:32.004Z,3.60
2022-10-21T07:58:59.184Z,4.30
2022-10-21T08:01:25.934Z,4.70
2022-10-21T08:03:54.334Z,4.13
2022-10-21T08:06:22.144Z,4.20
2022-10-21T08:08:48.783Z,4.63
2022-10-21T08:11:27.100Z,4.87
2022-10-21T08:13:54.544Z,4.50
2022-10-21T08:16:21.742Z,4.90
2022-10-21T08:18:48.725Z,4.93
2022-10-21T08:21:15.637Z,4.63
2022-10-21T08:23:42.485Z,4.83
2022-10-21T08:26:15.413Z,4.30
2022-10-21T08:28:42.837Z,4.97
2022-10-21T08:31:12.887Z,4.47
2022-10-21T08:33:40.506Z,4.47
2022-10-21T08:36:09.049Z,4.70
2022-10-21T08:38:36.138Z,4.70
2022-10-21T08:41:22.628Z,5.37
2022-10-21T08:43:51.005Z,6.23
2022-10-21T08:46:22.718Z,4.67
2022-10-21T08:49:00.302Z,4.30
2022-10-21T08:51:41.328Z,4.93
2022-10-21T08:54:18.178Z,3.80
2022-10-21T08:56:48.268Z,4.07
2022-10-21T08:59:24.784Z,4.87
2022-10-21T09:02:05.898Z,4.13
2022-10-21T09:04:47.394Z,3.60
2022-10-21T09:07:23.261Z,4.13
2022-10-21T09:10:03.054Z,4.13
2022-10-21T09:12:49.041Z,3.70
2022-10-21T09:15:27.173Z,3.90
2022-10-21T09:18:30.297Z,2.80
2022-10-21T09:21:22.727Z,3.17
2022-10-21T09:24:18.912Z,3.20
2022-10-21T09:26:49.134Z,2.20
2022-10-21T09:29:23.683Z,1.80
2022-10-21T09:31:56.068Z,1.40
2022-10-21T09:34:42.708Z,1.43
2022-10-21T09:37:36.251Z,1.43
2022-10-21T09:40:23.884Z,1.87
2022-10-21T09:42:55.961Z,1.73
2022-10-21T09:45:39.312Z,1.50
2022-10-21T09:48:19.728Z,1.60
2022-10-21T09:51:09.977Z,1.10
2022-10-21T09:53:53.635Z,1.27
2022-10-21T09:56:24.042Z,1.53
2022-10-21T09:59:07.535Z,1.27
2022-10-21T10:01:36.763Z,1.13
2022-10-21T10:04:21.056Z,1.27
2022-10-21T10:06:47.730Z,1.33
2022-10-21T10:09:25.962Z,1.03
2022-10-21T10:12:01.007Z,1.50
2022-10-21T10:14:29.180Z,1.30
2022-10-21T10:16:58.024Z,1.43
2022-10-21T10:19:28.089Z,1.20
2022-10-21T10:22:16.178Z,1.20
2022-10-21T10:24:44.001Z,0.90
2022-10-21T10:27:26.686Z,1.13
2022-10-21T10:29:57.448Z,0.70
2022-10-21T10:32:28.862Z,1.43
2022-10-21T10:35:05.268Z,0.90
2022-10-21T10:37:36.181Z,0.70
2022-10-21T10:40:09.037Z,0.83
2022-10-21T10:42:41.854Z,0.67
2022-10-21T10:45:19.588Z,0.70
2022-10-21T10:47:55.711Z,0.40
2022-10-21T10:50:37.514Z,0.60
2022-10-21T10:53:25.916Z,0.50
2022-10-21T10:56:34.193Z,0.47
2022-10-21T10:59:16.489Z,0.70
2022-10-21T11:01:51.687Z,0.50
2022-10-21T11:04:30.834Z,0.60
2022-10-21T11:07:07.870Z,0.50
2022-10-21T11:09:34.698Z,0.50
2022-10-21T11:12:06.061Z,0.80
2022-10-21T11:14:32.617Z,0.70
2022-10-21T11:17:18.687Z,0.50
2022-10-21T11:20:28.116Z,0.50
2022-10-21T11:25:59.780Z,0.47
2022-10-21T11:28:31.607Z,0.40
2022-10-21T11:31:43.884Z,0.30
2022-10-21T11:34:46.159Z,0.32
2022-10-21T11:37:33.906Z,0.30
2022-10-21T11:40:19.404Z,0.40
2022-10-21T11:42:51.407Z,0.50
2022-10-21T11:45:17.902Z,0.30
2022-10-21T11:48:04.037Z,0.63
2022-10-21T11:50:43.897Z,0.50
2022-10-21T11:53:26.056Z,0.40
2022-10-21T11:56:53.996Z,0.73
2022-10-21T11:59:38.459Z,0.40
2022-10-21T12:02:18.705Z,0.38
2022-10-21T12:05:02.396Z,0.40
2022-10-21T12:07:55.654Z,0.40
2022-10-21T12:10:36.253Z,0.40
2022-10-21T12:13:11.880Z,0.50
2022-10-21T12:15:46.431Z,0.40
2022-10-21T12:18:20.001Z,0.40
2022-10-21T12:20:49.493Z,0.60
2022-10-21T12:23:20.045Z,0.30
2022-10-21T12:26:21.379Z,0.38
2022-10-21T12:28:53.809Z,0.40
2022-10-21T12:31:48.909Z,0.50
2022-10-21T12:34:15.901Z,0.43
2022-10-21T12:36:46.532Z,0.45
2022-10-21T12:39:33.143Z,0.45
2022-10-21T12:42:10.742Z,0.40
2022-10-21T12:44:39.226Z,0.40
2022-10-21T12:47:28.870Z,0.40
2022-10-21T12:50:13.790Z,0.38
2022-10-21T12:52:42.454Z,0.40
2022-10-21T12:55:25.559Z,0.40
2022-10-21T12:58:02.777Z,0.63
2022-10-21T13:00:29.266Z,0.30
2022-10-21T13:03:03.681Z,0.50
2022-10-21T13:05:39.420Z,0.30
2022-10-21T13:08:22.685Z,0.50
2022-10-21T13:11:04.676Z,0.40
2022-10-21T13:13:41.785Z,0.50
2022-10-21T13:16:20.806Z,0.40
2022-10-21T13:19:26.151Z,0.60
2022-10-21T13:22:10.986Z,0.50
2022-10-21T13:24:38.450Z,0.40
2022-10-21T13:27:27.051Z,0.50
2022-10-21T13:29:54.856Z,0.40
2022-10-21T13:32:25.790Z,0.77
2022-10-21T13:35:07.432Z,0.40
2022-10-21T13:37:38.677Z,0.40
2022-10-21T13:40:16.693Z,0.47
2022-10-21T13:42:46.687Z,0.45
2022-10-21T13:45:34.116Z,0.63
2022-10-21T13:48:13.921Z,0.60
2022-10-21T13:50:43.331Z,0.40
2022-10-21T13:53:26.529Z,0.40
2022-10-21T13:55:54.763Z,0.65
2022-10-21T13:58:22.726Z,0.50
2022-10-21T14:00:49.592Z,0.40
2022-10-21T14:03:21.539Z,0.45
2022-10-21T14:05:51.981Z,0.50
2022-10-21T14:08:26.870Z,0.43
2022-10-21T14:10:56.324Z,0.40
2022-10-21T14:13:28.684Z,0.60
2022-10-21T14:15:56.171Z,0.40
2022-10-21T14:18:38.166Z,0.40
2022-10-21T14:21:06.327Z,0.40
2022-10-21T14:23:34.260Z,0.50
2022-10-21T14:26:08.934Z,0.60
2022-10-21T14:28:36.998Z,0.60
2022-10-21T14:33:45.043Z,0.50
2022-10-21T14:36:22.516Z,0.50
2022-10-21T14:39:03.594Z,0.40
2022-10-21T14:41:39.682Z,0.52
2022-10-21T14:44:12.406Z,1.48
2022-10-21T14:46:44.446Z,0.52
2022-10-21T14:49:30.867Z,0.68
2022-10-21T14:52:04.370Z,0.55
2022-10-21T14:54:53.841Z,0.50
2022-10-21T14:57:44.451Z,0.40
2022-10-21T15:00:41.546Z,0.40
2022-10-21T15:03:10.623Z,0.40
2022-10-21T15:05:47.881Z,0.50
2022-10-21T15:08:21.459Z,0.50
2022-10-21T15:10:57.150Z,0.50
2022-10-21T15:13:25.725Z,0.65
2022-10-21T15:15:54.575Z,0.60
2022-10-21T15:18:41.145Z,0.35
2022-10-21T15:21:13.557Z,0.50
2022-10-21T15:23:43.349Z,0.60
2022-10-21T15:26:37.696Z,0.50
2022-10-21T15:29:20.730Z,0.50
2022-10-21T15:31:47.699Z,0.50
2022-10-21T15:34:15.981Z,0.40
2022-10-21T15:36:43.919Z,0.45
2022-10-21T15:39:11.545Z,0.50
2022-10-21T15:41:39.040Z,0.60
2022-10-21T15:44:15.287Z,0.50
2022-10-21T15:46:46.322Z,0.50
2022-10-21T15:49:17.826Z,0.50
2022-10-21T15:51:44.434Z,0.50
2022-10-21T15:54:10.969Z,0.50
2022-10-21T15:56:37.894Z,0.60
2022-10-21T15:59:04.981Z,0.40
2022-10-21T16:01:31.609Z,0.60
2022-10-21T16:03:58.190Z,0.60
2022-10-21T16:06:24.736Z,0.70
2022-10-21T16:08:52.931Z,0.70
2022-10-21T16:11:29.694Z,0.70
2022-10-21T16:14:09.863Z,0.70
2022-10-21T16:16:46.163Z,0.77
2022-10-21T16:19:13.635Z,0.60
2022-10-21T16:21:40.630Z,0.80
2022-10-21T16:24:07.714Z,1.03
2022-10-21T16:26:45.320Z,0.77
2022-10-21T16:31:51.982Z,2.43
2022-10-21T16:37:05.873Z,0.60
2022-10-21T16:39:32.401Z,0.70
2022-10-21T16:41:58.917Z,0.77
2022-10-21T16:44:25.489Z,1.10
2022-10-21T16:46:54.884Z,0.70
2022-10-21T16:49:25.387Z,1.00
2022-10-21T16:51:53.154Z,0.80
2022-10-21T16:54:22.371Z,0.73
2022-10-21T16:56:51.000Z,0.90
2022-10-21T16:59:19.986Z,0.90
2022-10-21T17:01:46.569Z,0.97
2022-10-21T17:04:14.539Z,0.83
2022-10-21T17:06:41.493Z,0.97
2022-10-21T17:09:08.381Z,1.10
2022-10-21T17:11:37.260Z,1.20
2022-10-21T17:14:05.945Z,1.50
2022-10-21T17:16:32.908Z,1.27
2022-10-21T17:18:59.577Z,1.30
2022-10-21T17:21:29.008Z,0.90
2022-10-21T17:23:57.083Z,1.50
2022-10-21T17:26:24.144Z,1.10
2022-10-21T17:28:50.763Z,1.13
2022-10-21T17:31:23.167Z,1.60
2022-10-21T17:33:50.746Z,1.10
2022-10-21T17:36:18.665Z,1.40
2022-10-21T17:38:45.480Z,1.10
2022-10-21T17:41:14.762Z,1.40
2022-10-21T17:43:41.424Z,1.30
2022-10-21T17:46:09.573Z,1.20
2022-10-21T17:48:36.096Z,1.80
2022-10-21T17:51:02.626Z,1.43
2022-10-21T17:53:30.705Z,1.53
2022-10-21T17:56:05.595Z,1.60
2022-10-21T17:58:32.969Z,1.20
2022-10-21T18:00:59.566Z,1.23
2022-10-21T18:03:28.561Z,2.90
2022-10-21T18:05:56.055Z,1.40
2022-10-21T18:08:23.213Z,1.60
2022-10-21T18:10:57.953Z,1.60
2022-10-21T18:13:28.096Z,2.90
2022-10-21T18:15:55.666Z,4.87
2022-10-21T18:18:23.132Z,12.00
2022-10-21T18:20:49.688Z,2.70
2022-10-21T18:23:21.025Z,2.20
2022-10-21T18:25:48.034Z,3.20
2022-10-21T18:28:17.277Z,2.10
2022-10-21T18:30:44.617Z,1.93
2022-10-21T18:33:11.227Z,5.13
2022-10-21T18:35:37.980Z,8.87
2022-10-21T18:38:04.844Z,3.70
2022-10-21T18:40:33.332Z,4.63
2022-10-21T18:43:05.118Z,3.23
2022-10-21T18:45:32.005Z,5.57
2022-10-21T18:47:58.591Z,11.83
2022-10-21T18:50:25.150Z,6.47
2022-10-21T18:52:51.723Z,6.13
2022-10-21T18:55:18.828Z,8.53
2022-10-21T18:57:45.359Z,4.50
2022-10-21T19:00:15.065Z,3.80
2022-10-21T19:02:43.685Z,2.20
2022-10-21T19:05:13.610Z,1.83
2022-10-21T19:07:40.421Z,1.67
2022-10-21T19:10:08.642Z,29.57
2022-10-21T19:12:37.893Z,2.83
2022-10-21T19:15:06.010Z,2.40
2022-10-21T19:17:32.659Z,1.50
2022-10-21T19:20:00.722Z,1.57
2022-10-21T19:22:31.395Z,1.40
2022-10-21T19:24:57.926Z,1.50
2022-10-21T19:27:24.807Z,0.97
2022-10-21T19:29:52.590Z,1.70
2022-10-21T19:32:19.297Z,2.00
2022-10-21T19:34:45.850Z,2.27
2022-10-21T19:37:13.193Z,2.80
2022-10-21T19:39:39.798Z,2.13
2022-10-21T19:42:06.355Z,1.50
2022-10-21T19:44:32.921Z,1.03
2022-10-21T19:46:59.475Z,1.40
2022-10-21T19:49:26.010Z,1.20
2022-10-21T19:51:52.575Z,1.40
2022-10-21T19:54:19.126Z,1.07
2022-10-21T19:56:45.698Z,1.37
2022-10-21T19:59:12.300Z,1.00
2022-10-21T20:01:39.150Z,1.07
2022-10-21T20:04:06.378Z,1.13
2022-10-21T20:06:35.805Z,1.30
2022-10-21T20:09:09.044Z,1.27
2022-10-21T20:11:36.582Z,1.40
2022-10-21T20:14:04.178Z,1.50
2022-10-21T20:16:33.533Z,1.70
2022-10-21T20:19:01.913Z,1.13
2022-10-21T20:21:30.665Z,1.20
2022-10-21T20:23:58.550Z,1.00
2022-10-21T20:26:25.503Z,1.00
2022-10-21T20:28:52.686Z,1.17
2022-10-21T20:31:19.342Z,1.10
2022-10-21T20:33:51.376Z,1.00
2022-10-21T20:36:22.324Z,1.37
2022-10-21T20:38:50.626Z,3.20
2022-10-21T20:41:23.066Z,0.93
2022-10-21T20:43:50.973Z,1.10
2022-10-21T20:46:19.464Z,1.33
2022-10-21T20:48:48.288Z,1.10
2022-10-21T20:51:23.892Z,0.90
2022-10-21T20:53:55.518Z,0.97
2022-10-21T20:56:25.097Z,1.00
2022-10-21T20:58:51.659Z,1.00
2022-10-21T21:01:22.230Z,1.00
2022-10-21T21:03:50.102Z,1.30
2022-10-21T21:06:16.971Z,1.50
2022-10-21T21:08:48.997Z,1.50
2022-10-21T21:11:25.114Z,1.60
2022-10-21T21:13:51.654Z,1.23
2022-10-21T21:16:21.517Z,1.30
2022-10-21T21:19:05.549Z,1.37
2022-10-21T21:21:35.051Z,1.50
2022-10-21T21:24:03.015Z,1.57
2022-10-21T21:26:35.803Z,1.57
2022-10-21T21:29:02.996Z,1.67
2022-10-21T21:31:30.900Z,1.57
2022-10-21T21:33:57.903Z,1.60
2022-10-21T21:36:25.234Z,1.83
2022-10-21T21:38:53.930Z,2.17
2022-10-21T21:41:22.290Z,1.50
2022-10-21T21:43:50.512Z,1.40
2022-10-21T21:46:23.457Z,2.10
2022-10-21T21:48:56.110Z,1.90
2022-10-21T21:51:27.422Z,1.90
2022-10-21T21:53:55.363Z,1.40
2022-10-21T21:56:22.947Z,1.53
2022-10-21T21:58:50.975Z,1.50
2022-10-21T22:01:23.115Z,1.73
2022-10-21T22:03:51.661Z,1.50
2022-10-21T22:06:20.516Z,2.47
2022-10-21T22:08:47.576Z,1.67
2022-10-21T22:11:17.493Z,1.67
2022-10-21T22:13:44.325Z,1.73
2022-10-21T22:16:12.643Z,2.10
2022-10-21T22:18:39.638Z,1.80
2022-10-21T22:21:08.791Z,2.07
2022-10-21T22:23:39.005Z,1.90
2022-10-21T22:26:07.390Z,1.60
2022-10-21T22:28:35.010Z,1.93
2022-10-21T22:31:07.429Z,2.10
2022-10-21T22:33:34.581Z,2.10
2022-10-21T22:36:01.728Z,2.37
2022-10-21T22:38:29.331Z,2.50
2022-10-21T22:40:57.932Z,3.03
2022-10-21T22:43:26.070Z,2.23
2022-10-21T22:45:55.219Z,2.00
2022-10-21T22:48:27.848Z,2.03
2022-10-21T22:50:54.674Z,2.33
2022-10-21T22:53:21.571Z,2.30
2022-10-21T22:55:48.254Z,2.10
2022-10-21T22:58:20.057Z,2.63
2022-10-21T23:00:47.921Z,2.63
2022-10-21T23:03:15.866Z,2.50
2022-10-21T23:05:42.486Z,2.03
2022-10-21T23:08:09.644Z,2.47
2022-10-21T23:10:36.607Z,2.30
2022-10-21T23:13:05.906Z,2.47
2022-10-21T23:15:34.051Z,2.60
2022-10-21T23:18:00.954Z,2.27
2022-10-21T23:20:28.143Z,2.10
2022-10-21T23:22:54.771Z,2.37
2022-10-21T23:25:22.839Z,2.53
2022-10-21T23:27:50.047Z,2.40
2022-10-21T23:30:16.866Z,2.70
2022-10-21T23:32:43.489Z,2.87
2022-10-21T23:35:10.279Z,2.53
2022-10-21T23:37:37.075Z,2.40
2022-10-21T23:40:05.039Z,2.97
2022-10-21T23:42:31.564Z,2.73
2022-10-21T23:44:58.183Z,2.67
2022-10-21T23:47:24.767Z,3.13
2022-10-21T23:49:51.372Z,3.47
2022-10-21T23:52:18.100Z,2.97
2022-10-21T23:54:44.673Z,2.97
2022-10-21T23:57:11.351Z,2.83
2022-10-21T23:59:37.882Z,2.57
